Hovedside
METAR-TAF:

METAR-TAF

Lufthavner :

Kuusamo, Finland

Kuusamo lufthavn

breddegrad: 65-58N, lengdegrad: 029-11E, høyde over havet: 262 m

Gjeldene værobservasjon

Denne rapporten ble laget for 42 minutter siden, klokken 13:50 UTC
Flau vind
Temperatur -19°C
Luftfuktighet 84%
Trykk 1022 hPa
Sikt 10 km eller mer
ingen skyer under 1500 m og ingen bygeskyer

METAR: EFKS 221350Z 00000KT CAVOK M19/M21 Q1022

Tid: 16:32 (14:32 UTC)

Varsel

Denne rapporten ble laget for 3 timer og 6 minutter siden, klokken 11:26 UTC
Varsel gyldig fra 22. klokken 12 UTC til 22. klokken 21 UTC
Vind 2 kt fra Vest-nordvest
Sikt 10 km eller mer
ingen skyer under 1500 m og ingen bygeskyer
Sannsynlighet 30%
fra 22. klokken 12 UTC til 22. klokken 21 UTC
Sikt: 0800 m
i en høyde av 100 ft
tåkebanker

TAF: EFKS 221126Z 2212/2221 30002KT CAVOK PROB30 2212/2221 0800 BCFG VV001

Værobservasjoner og værvarsel for over 4000 flyplasser (METAR- og TAF-rapporter).

Tilgjengelige stasjoner er representert av de røde og gule prikkene på kartet.

Hold musepekeren over prikken for å se navnet på stasjonen.

Klikk så for å se værobservasjoner og -varsler.

For å forandre kartet kan du klikke på den grønne knappen med svart kryss for å zoome inn, på den grønne knappen med strek for å zoome ut, eller på de grønne pilene for å se tilstøtende kart.


METAR-TAF: